sensor_id;sensor_type;location;lat;lon;timestamp;P1;durP1;ratioP1;P2;durP2;ratioP2
68484;SDS011;55472;50.060;21.960;2022-09-09T00:04:48;53.38;;;26.23;;
68484;SDS011;55472;50.060;21.960;2022-09-09T00:07:52;53.92;;;25.50;;
68484;SDS011;55472;50.060;21.960;2022-09-09T00:10:29;54.67;;;25.65;;
68484;SDS011;55472;50.060;21.960;2022-09-09T00:12:59;52.92;;;25.77;;
68484;SDS011;55472;50.060;21.960;2022-09-09T00:21:43;57.67;;;26.70;;
68484;SDS011;55472;50.060;21.960;2022-09-09T00:27:29;51.70;;;25.75;;
68484;SDS011;55472;50.060;21.960;2022-09-09T00:30:14;51.17;;;25.07;;
68484;SDS011;55472;50.060;21.960;2022-09-09T00:32:59;56.47;;;26.65;;
68484;SDS011;55472;50.060;21.960;2022-09-09T00:38:02;57.53;;;28.50;;
68484;SDS011;55472;50.060;21.960;2022-09-09T00:40:58;50.63;;;25.98;;
68484;SDS011;55472;50.060;21.960;2022-09-09T00:44:02;60.23;;;26.47;;
68484;SDS011;55472;50.060;21.960;2022-09-09T00:46:54;57.33;;;27.15;;
68484;SDS011;55472;50.060;21.960;2022-09-09T00:49:54;63.95;;;28.88;;
68484;SDS011;55472;50.060;21.960;2022-09-09T00:52:47;53.58;;;26.83;;
68484;SDS011;55472;50.060;21.960;2022-09-09T00:57:58;56.20;;;26.87;;
68484;SDS011;55472;50.060;21.960;2022-09-09T01:00:30;58.13;;;27.05;;
68484;SDS011;55472;50.060;21.960;2022-09-09T01:06:01;51.17;;;25.63;;
68484;SDS011;55472;50.060;21.960;2022-09-09T01:15:21;56.60;;;26.63;;
68484;SDS011;55472;50.060;21.960;2022-09-09T01:28:29;53.90;;;26.25;;
68484;SDS011;55472;50.060;21.960;2022-09-09T01:30:58;50.83;;;26.08;;
68484;SDS011;55472;50.060;21.960;2022-09-09T01:33:25;48.63;;;25.52;;
68484;SDS011;55472;50.060;21.960;2022-09-09T01:38:31;51.60;;;24.70;;
68484;SDS011;55472;50.060;21.960;2022-09-09T01:40:59;50.38;;;25.00;;
68484;SDS011;55472;50.060;21.960;2022-09-09T01:43:26;51.28;;;25.63;;
68484;SDS011;55472;50.060;21.960;2022-09-09T01:45:53;47.50;;;24.30;;
68484;SDS011;55472;50.060;21.960;2022-09-09T01:48:22;50.00;;;24.63;;
68484;SDS011;55472;50.060;21.960;2022-09-09T01:50:50;52.70;;;24.67;;
68484;SDS011;55472;50.060;21.960;2022-09-09T01:53:17;47.40;;;23.65;;
68484;SDS011;55472;50.060;21.960;2022-09-09T01:58:53;45.70;;;24.75;;
68484;SDS011;55472;50.060;21.960;2022-09-09T02:07:59;49.05;;;24.40;;
68484;SDS011;55472;50.060;21.960;2022-09-09T02:10:42;48.15;;;24.05;;
68484;SDS011;55472;50.060;21.960;2022-09-09T02:13:41;49.20;;;23.48;;
68484;SDS011;55472;50.060;21.960;2022-09-09T02:19:06;46.17;;;23.20;;
68484;SDS011;55472;50.060;21.960;2022-09-09T02:21:52;45.10;;;23.70;;
68484;SDS011;55472;50.060;21.960;2022-09-09T02:24:21;47.08;;;23.10;;
68484;SDS011;55472;50.060;21.960;2022-09-09T02:26:49;43.25;;;23.30;;
68484;SDS011;55472;50.060;21.960;2022-09-09T02:29:20;50.38;;;22.95;;
68484;SDS011;55472;50.060;21.960;2022-09-09T02:31:52;46.73;;;23.13;;
68484;SDS011;55472;50.060;21.960;2022-09-09T02:34:22;44.20;;;22.77;;
68484;SDS011;55472;50.060;21.960;2022-09-09T02:36:49;46.25;;;22.88;;
68484;SDS011;55472;50.060;21.960;2022-09-09T02:39:19;48.35;;;22.52;;
68484;SDS011;55472;50.060;21.960;2022-09-09T02:41:45;45.85;;;22.73;;
68484;SDS011;55472;50.060;21.960;2022-09-09T02:44:11;44.50;;;22.40;;
68484;SDS011;55472;50.060;21.960;2022-09-09T02:52:57;40.13;;;20.23;;
68484;SDS011;55472;50.060;21.960;2022-09-09T02:55:47;39.87;;;20.23;;
68484;SDS011;55472;50.060;21.960;2022-09-09T02:58:18;44.13;;;21.60;;
68484;SDS011;55472;50.060;21.960;2022-09-09T03:00:51;44.50;;;21.05;;
68484;SDS011;55472;50.060;21.960;2022-09-09T03:03:18;40.40;;;21.13;;
68484;SDS011;55472;50.060;21.960;2022-09-09T03:05:45;43.30;;;21.90;;
68484;SDS011;55472;50.060;21.960;2022-09-09T03:08:11;43.77;;;21.63;;
68484;SDS011;55472;50.060;21.960;2022-09-09T03:10:38;41.10;;;20.00;;
68484;SDS011;55472;50.060;21.960;2022-09-09T03:13:04;40.63;;;20.35;;
68484;SDS011;55472;50.060;21.960;2022-09-09T03:15:33;38.92;;;20.02;;
68484;SDS011;55472;50.060;21.960;2022-09-09T03:18:00;41.92;;;20.17;;
68484;SDS011;55472;50.060;21.960;2022-09-09T03:20:27;38.50;;;19.90;;
68484;SDS011;55472;50.060;21.960;2022-09-09T03:22:54;41.40;;;20.80;;
68484;SDS011;55472;50.060;21.960;2022-09-09T03:25:21;36.45;;;18.10;;
68484;SDS011;55472;50.060;21.960;2022-09-09T03:27:52;38.97;;;19.58;;
68484;SDS011;55472;50.060;21.960;2022-09-09T03:30:20;41.10;;;20.23;;
68484;SDS011;55472;50.060;21.960;2022-09-09T03:32:47;37.33;;;20.13;;
68484;SDS011;55472;50.060;21.960;2022-09-09T03:35:14;36.78;;;19.45;;
68484;SDS011;55472;50.060;21.960;2022-09-09T03:37:40;40.63;;;20.40;;
68484;SDS011;55472;50.060;21.960;2022-09-09T03:40:07;37.92;;;19.00;;
68484;SDS011;55472;50.060;21.960;2022-09-09T03:42:35;41.42;;;19.80;;
68484;SDS011;55472;50.060;21.960;2022-09-09T03:45:06;37.37;;;19.10;;
68484;SDS011;55472;50.060;21.960;2022-09-09T03:47:34;42.15;;;20.45;;
68484;SDS011;55472;50.060;21.960;2022-09-09T03:50:00;35.63;;;19.27;;
68484;SDS011;55472;50.060;21.960;2022-09-09T03:52:26;33.80;;;19.15;;
68484;SDS011;55472;50.060;21.960;2022-09-09T03:54:52;44.53;;;19.80;;
68484;SDS011;55472;50.060;21.960;2022-09-09T03:57:19;37.58;;;19.98;;
68484;SDS011;55472;50.060;21.960;2022-09-09T03:59:46;34.05;;;18.60;;
68484;SDS011;55472;50.060;21.960;2022-09-09T04:02:12;38.00;;;19.65;;
68484;SDS011;55472;50.060;21.960;2022-09-09T04:04:45;36.22;;;19.77;;
68484;SDS011;55472;50.060;21.960;2022-09-09T04:07:10;37.10;;;19.33;;
68484;SDS011;55472;50.060;21.960;2022-09-09T04:09:37;41.50;;;20.02;;
68484;SDS011;55472;50.060;21.960;2022-09-09T04:12:03;34.97;;;18.13;;
68484;SDS011;55472;50.060;21.960;2022-09-09T04:14:29;35.85;;;18.88;;
68484;SDS011;55472;50.060;21.960;2022-09-09T04:16:55;34.73;;;17.97;;
68484;SDS011;55472;50.060;21.960;2022-09-09T04:19:23;34.63;;;18.42;;
68484;SDS011;55472;50.060;21.960;2022-09-09T04:21:50;36.05;;;18.33;;
68484;SDS011;55472;50.060;21.960;2022-09-09T04:24:16;37.28;;;18.38;;
68484;SDS011;55472;50.060;21.960;2022-09-09T04:26:43;37.08;;;18.67;;
68484;SDS011;55472;50.060;21.960;2022-09-09T04:29:09;35.17;;;18.20;;
68484;SDS011;55472;50.060;21.960;2022-09-09T04:31:34;37.42;;;18.63;;
68484;SDS011;55472;50.060;21.960;2022-09-09T04:34:01;33.83;;;17.70;;
68484;SDS011;55472;50.060;21.960;2022-09-09T04:36:30;33.55;;;18.02;;
68484;SDS011;55472;50.060;21.960;2022-09-09T04:38:59;36.67;;;19.08;;
68484;SDS011;55472;50.060;21.960;2022-09-09T04:41:26;40.60;;;19.40;;
68484;SDS011;55472;50.060;21.960;2022-09-09T04:43:52;35.10;;;17.85;;
68484;SDS011;55472;50.060;21.960;2022-09-09T04:46:19;36.72;;;18.48;;
68484;SDS011;55472;50.060;21.960;2022-09-09T04:48:48;34.78;;;18.42;;
68484;SDS011;55472;50.060;21.960;2022-09-09T04:51:15;35.72;;;17.60;;
68484;SDS011;55472;50.060;21.960;2022-09-09T04:53:41;32.80;;;17.70;;
68484;SDS011;55472;50.060;21.960;2022-09-09T04:56:11;33.17;;;18.08;;
68484;SDS011;55472;50.060;21.960;2022-09-09T04:58:40;37.97;;;17.70;;
68484;SDS011;55472;50.060;21.960;2022-09-09T05:03:43;34.70;;;17.92;;
68484;SDS011;55472;50.060;21.960;2022-09-09T05:06:11;33.60;;;18.40;;
68484;SDS011;55472;50.060;21.960;2022-09-09T05:08:41;38.22;;;18.55;;
68484;SDS011;55472;50.060;21.960;2022-09-09T05:13:46;34.30;;;17.50;;
68484;SDS011;55472;50.060;21.960;2022-09-09T05:16:12;35.00;;;18.92;;
68484;SDS011;55472;50.060;21.960;2022-09-09T05:18:39;36.97;;;19.00;;
68484;SDS011;55472;50.060;21.960;2022-09-09T05:21:08;32.25;;;18.27;;
68484;SDS011;55472;50.060;21.960;2022-09-09T05:23:35;39.40;;;19.95;;
68484;SDS011;55472;50.060;21.960;2022-09-09T05:26:02;34.72;;;18.10;;
68484;SDS011;55472;50.060;21.960;2022-09-09T05:28:29;35.92;;;18.67;;
68484;SDS011;55472;50.060;21.960;2022-09-09T05:30:59;33.30;;;18.57;;
68484;SDS011;55472;50.060;21.960;2022-09-09T05:33:33;35.92;;;19.45;;
68484;SDS011;55472;50.060;21.960;2022-09-09T05:38:33;37.35;;;19.10;;
68484;SDS011;55472;50.060;21.960;2022-09-09T05:41:01;33.92;;;18.67;;
68484;SDS011;55472;50.060;21.960;2022-09-09T05:43:28;34.20;;;18.27;;
68484;SDS011;55472;50.060;21.960;2022-09-09T05:48:32;32.92;;;17.73;;
68484;SDS011;55472;50.060;21.960;2022-09-09T05:51:03;33.47;;;17.90;;
68484;SDS011;55472;50.060;21.960;2022-09-09T05:53:35;35.92;;;17.95;;
68484;SDS011;55472;50.060;21.960;2022-09-09T05:56:02;32.83;;;18.27;;
68484;SDS011;55472;50.060;21.960;2022-09-09T05:58:30;34.70;;;18.08;;
68484;SDS011;55472;50.060;21.960;2022-09-09T06:01:04;32.30;;;18.55;;
68484;SDS011;55472;50.060;21.960;2022-09-09T06:03:42;36.85;;;18.17;;
68484;SDS011;55472;50.060;21.960;2022-09-09T06:06:10;30.90;;;17.67;;
68484;SDS011;55472;50.060;21.960;2022-09-09T06:08:43;35.23;;;17.30;;
68484;SDS011;55472;50.060;21.960;2022-09-09T06:11:11;30.80;;;17.02;;
68484;SDS011;55472;50.060;21.960;2022-09-09T06:13:43;33.63;;;16.15;;
68484;SDS011;55472;50.060;21.960;2022-09-09T06:16:09;29.05;;;15.45;;
68484;SDS011;55472;50.060;21.960;2022-09-09T06:18:38;32.20;;;16.30;;
68484;SDS011;55472;50.060;21.960;2022-09-09T06:21:09;32.30;;;16.63;;
68484;SDS011;55472;50.060;21.960;2022-09-09T06:23:41;29.15;;;15.45;;
68484;SDS011;55472;50.060;21.960;2022-09-09T06:26:11;28.90;;;14.85;;
68484;SDS011;55472;50.060;21.960;2022-09-09T06:28:40;28.20;;;14.63;;
68484;SDS011;55472;50.060;21.960;2022-09-09T06:31:12;24.00;;;12.70;;
68484;SDS011;55472;50.060;21.960;2022-09-09T06:33:40;23.80;;;12.15;;
68484;SDS011;55472;50.060;21.960;2022-09-09T06:36:11;20.25;;;11.70;;
68484;SDS011;55472;50.060;21.960;2022-09-09T06:38:40;21.45;;;11.23;;
68484;SDS011;55472;50.060;21.960;2022-09-09T06:41:07;23.63;;;11.73;;
68484;SDS011;55472;50.060;21.960;2022-09-09T06:43:35;22.27;;;10.83;;
68484;SDS011;55472;50.060;21.960;2022-09-09T06:46:03;19.42;;;10.65;;
68484;SDS011;55472;50.060;21.960;2022-09-09T06:48:33;18.40;;;10.98;;
68484;SDS011;55472;50.060;21.960;2022-09-09T06:51:06;17.05;;;9.88;;
68484;SDS011;55472;50.060;21.960;2022-09-09T06:53:34;17.63;;;9.18;;
68484;SDS011;55472;50.060;21.960;2022-09-09T06:58:40;15.93;;;8.95;;
68484;SDS011;55472;50.060;21.960;2022-09-09T07:01:08;16.10;;;8.60;;
68484;SDS011;55472;50.060;21.960;2022-09-09T07:03:35;18.27;;;9.00;;
68484;SDS011;55472;50.060;21.960;2022-09-09T07:06:01;15.00;;;8.25;;
68484;SDS011;55472;50.060;21.960;2022-09-09T07:08:27;15.00;;;8.80;;
68484;SDS011;55472;50.060;21.960;2022-09-09T07:10:53;13.23;;;8.10;;
68484;SDS011;55472;50.060;21.960;2022-09-09T07:13:23;14.35;;;8.02;;
68484;SDS011;55472;50.060;21.960;2022-09-09T07:15:50;14.70;;;8.07;;
68484;SDS011;55472;50.060;21.960;2022-09-09T07:18:17;14.60;;;8.02;;
68484;SDS011;55472;50.060;21.960;2022-09-09T07:20:53;13.13;;;7.97;;
68484;SDS011;55472;50.060;21.960;2022-09-09T07:23:20;14.77;;;7.63;;
68484;SDS011;55472;50.060;21.960;2022-09-09T07:25:46;13.75;;;8.32;;
68484;SDS011;55472;50.060;21.960;2022-09-09T07:28:13;14.77;;;8.90;;
68484;SDS011;55472;50.060;21.960;2022-09-09T07:30:40;15.63;;;8.25;;
68484;SDS011;55472;50.060;21.960;2022-09-09T07:33:06;12.73;;;7.87;;
68484;SDS011;55472;50.060;21.960;2022-09-09T07:35:32;14.10;;;8.35;;
68484;SDS011;55472;50.060;21.960;2022-09-09T07:38:00;15.75;;;8.88;;
68484;SDS011;55472;50.060;21.960;2022-09-09T07:40:26;11.85;;;7.45;;
68484;SDS011;55472;50.060;21.960;2022-09-09T07:42:52;11.77;;;7.28;;
68484;SDS011;55472;50.060;21.960;2022-09-09T07:45:18;10.97;;;6.33;;
68484;SDS011;55472;50.060;21.960;2022-09-09T07:47:52;11.10;;;6.47;;
68484;SDS011;55472;50.060;21.960;2022-09-09T07:50:18;12.93;;;6.15;;
68484;SDS011;55472;50.060;21.960;2022-09-09T07:52:44;11.30;;;6.07;;
68484;SDS011;55472;50.060;21.960;2022-09-09T07:55:10;9.30;;;5.57;;
68484;SDS011;55472;50.060;21.960;2022-09-09T07:57:36;11.05;;;5.95;;
68484;SDS011;55472;50.060;21.960;2022-09-09T08:00:03;10.75;;;5.90;;
68484;SDS011;55472;50.060;21.960;2022-09-09T08:02:30;8.27;;;5.20;;
68484;SDS011;55472;50.060;21.960;2022-09-09T08:04:56;8.60;;;5.70;;
68484;SDS011;55472;50.060;21.960;2022-09-09T08:07:22;10.83;;;5.40;;
68484;SDS011;55472;50.060;21.960;2022-09-09T08:09:48;10.52;;;5.50;;
68484;SDS011;55472;50.060;21.960;2022-09-09T08:12:14;7.78;;;5.03;;
68484;SDS011;55472;50.060;21.960;2022-09-09T08:14:41;10.63;;;5.95;;
68484;SDS011;55472;50.060;21.960;2022-09-09T08:17:07;9.60;;;5.60;;
68484;SDS011;55472;50.060;21.960;2022-09-09T08:19:33;7.85;;;5.20;;
68484;SDS011;55472;50.060;21.960;2022-09-09T08:22:01;7.75;;;4.78;;
68484;SDS011;55472;50.060;21.960;2022-09-09T08:24:28;12.50;;;5.53;;
68484;SDS011;55472;50.060;21.960;2022-09-09T08:26:54;8.10;;;5.03;;
68484;SDS011;55472;50.060;21.960;2022-09-09T08:29:22;6.93;;;4.50;;
68484;SDS011;55472;50.060;21.960;2022-09-09T08:31:49;9.38;;;4.75;;
68484;SDS011;55472;50.060;21.960;2022-09-09T08:34:19;7.55;;;4.75;;
68484;SDS011;55472;50.060;21.960;2022-09-09T08:36:47;8.73;;;4.97;;
68484;SDS011;55472;50.060;21.960;2022-09-09T08:39:16;7.55;;;4.70;;
68484;SDS011;55472;50.060;21.960;2022-09-09T08:47:31;7.53;;;4.43;;
68484;SDS011;55472;50.060;21.960;2022-09-09T08:50:25;8.82;;;4.20;;
68484;SDS011;55472;50.060;21.960;2022-09-09T09:04:15;5.90;;;3.45;;
68484;SDS011;55472;50.060;21.960;2022-09-09T09:07:07;5.93;;;4.18;;
68484;SDS011;55472;50.060;21.960;2022-09-09T09:12:57;6.38;;;4.20;;
68484;SDS011;55472;50.060;21.960;2022-09-09T09:15:26;5.40;;;3.65;;
68484;SDS011;55472;50.060;21.960;2022-09-09T09:18:02;6.80;;;3.90;;
68484;SDS011;55472;50.060;21.960;2022-09-09T09:20:52;5.50;;;4.00;;
68484;SDS011;55472;50.060;21.960;2022-09-09T09:23:23;5.30;;;3.90;;
68484;SDS011;55472;50.060;21.960;2022-09-09T09:25:56;6.22;;;3.80;;
68484;SDS011;55472;50.060;21.960;2022-09-09T09:28:26;8.00;;;3.97;;
68484;SDS011;55472;50.060;21.960;2022-09-09T09:31:03;9.45;;;5.82;;
68484;SDS011;55472;50.060;21.960;2022-09-09T09:33:54;10.23;;;5.10;;
68484;SDS011;55472;50.060;21.960;2022-09-09T09:36:23;7.63;;;4.40;;
68484;SDS011;55472;50.060;21.960;2022-09-09T09:39:10;6.78;;;4.60;;
68484;SDS011;55472;50.060;21.960;2022-09-09T09:41:38;5.20;;;3.72;;
68484;SDS011;55472;50.060;21.960;2022-09-09T09:44:22;6.65;;;4.00;;
68484;SDS011;55472;50.060;21.960;2022-09-09T09:46:52;8.67;;;3.57;;
68484;SDS011;55472;50.060;21.960;2022-09-09T09:49:29;6.07;;;3.67;;
68484;SDS011;55472;50.060;21.960;2022-09-09T09:52:00;5.20;;;3.10;;
68484;SDS011;55472;50.060;21.960;2022-09-09T09:54:31;6.40;;;3.70;;
68484;SDS011;55472;50.060;21.960;2022-09-09T09:57:10;5.15;;;3.80;;
68484;SDS011;55472;50.060;21.960;2022-09-09T09:59:38;5.60;;;4.10;;
68484;SDS011;55472;50.060;21.960;2022-09-09T10:02:26;5.03;;;3.75;;
68484;SDS011;55472;50.060;21.960;2022-09-09T10:08:04;6.80;;;3.90;;
68484;SDS011;55472;50.060;21.960;2022-09-09T10:16:39;4.88;;;3.00;;
68484;SDS011;55472;50.060;21.960;2022-09-09T10:19:32;5.25;;;2.60;;
68484;SDS011;55472;50.060;21.960;2022-09-09T10:28:16;4.53;;;2.87;;
68484;SDS011;55472;50.060;21.960;2022-09-09T10:36:54;4.78;;;2.40;;
68484;SDS011;55472;50.060;21.960;2022-09-09T10:53:35;4.68;;;2.90;;
68484;SDS011;55472;50.060;21.960;2022-09-09T10:56:11;5.17;;;3.40;;
68484;SDS011;55472;50.060;21.960;2022-09-09T10:58:42;6.03;;;3.45;;
68484;SDS011;55472;50.060;21.960;2022-09-09T11:01:16;6.22;;;3.25;;
68484;SDS011;55472;50.060;21.960;2022-09-09T11:03:49;5.57;;;3.08;;
68484;SDS011;55472;50.060;21.960;2022-09-09T11:06:22;7.47;;;3.63;;
68484;SDS011;55472;50.060;21.960;2022-09-09T11:08:58;5.43;;;3.30;;
68484;SDS011;55472;50.060;21.960;2022-09-09T11:17:12;5.45;;;3.60;;
68484;SDS011;55472;50.060;21.960;2022-09-09T11:19:44;6.45;;;3.70;;
68484;SDS011;55472;50.060;21.960;2022-09-09T11:25:20;7.05;;;4.20;;
68484;SDS011;55472;50.060;21.960;2022-09-09T11:38:58;7.25;;;4.10;;
68484;SDS011;55472;50.060;21.960;2022-09-09T11:41:45;7.65;;;3.53;;
68484;SDS011;55472;50.060;21.960;2022-09-09T11:44:12;5.70;;;3.67;;
68484;SDS011;55472;50.060;21.960;2022-09-09T11:46:51;6.27;;;3.43;;
68484;SDS011;55472;50.060;21.960;2022-09-09T11:49:28;5.13;;;3.33;;
68484;SDS011;55472;50.060;21.960;2022-09-09T11:52:11;5.97;;;3.30;;
68484;SDS011;55472;50.060;21.960;2022-09-09T11:54:48;6.35;;;3.47;;
68484;SDS011;55472;50.060;21.960;2022-09-09T11:57:34;7.15;;;4.32;;
68484;SDS011;55472;50.060;21.960;2022-09-09T12:00:02;5.23;;;3.37;;
68484;SDS011;55472;50.060;21.960;2022-09-09T12:02:30;7.13;;;3.67;;
68484;SDS011;55472;50.060;21.960;2022-09-09T12:07:42;4.95;;;3.00;;
68484;SDS011;55472;50.060;21.960;2022-09-09T12:10:27;5.30;;;3.08;;
68484;SDS011;55472;50.060;21.960;2022-09-09T12:15:51;7.47;;;3.53;;
68484;SDS011;55472;50.060;21.960;2022-09-09T12:20:54;5.20;;;3.10;;
68484;SDS011;55472;50.060;21.960;2022-09-09T12:23:46;5.53;;;3.40;;
68484;SDS011;55472;50.060;21.960;2022-09-09T12:26:32;5.10;;;3.13;;
68484;SDS011;55472;50.060;21.960;2022-09-09T12:32:24;5.30;;;3.28;;
68484;SDS011;55472;50.060;21.960;2022-09-09T12:37:38;5.10;;;3.58;;
68484;SDS011;55472;50.060;21.960;2022-09-09T12:40:21;6.10;;;3.47;;
68484;SDS011;55472;50.060;21.960;2022-09-09T12:42:52;5.43;;;3.10;;
68484;SDS011;55472;50.060;21.960;2022-09-09T12:45:24;8.13;;;3.13;;
68484;SDS011;55472;50.060;21.960;2022-09-09T12:47:56;5.53;;;3.00;;
68484;SDS011;55472;50.060;21.960;2022-09-09T12:50:27;4.95;;;3.22;;
68484;SDS011;55472;50.060;21.960;2022-09-09T12:52:57;4.47;;;2.83;;
68484;SDS011;55472;50.060;21.960;2022-09-09T12:55:28;5.45;;;3.05;;
68484;SDS011;55472;50.060;21.960;2022-09-09T12:57:58;5.28;;;3.30;;
68484;SDS011;55472;50.060;21.960;2022-09-09T13:00:29;5.00;;;3.00;;
68484;SDS011;55472;50.060;21.960;2022-09-09T13:02:57;4.50;;;2.90;;
68484;SDS011;55472;50.060;21.960;2022-09-09T13:05:41;4.33;;;2.93;;
68484;SDS011;55472;50.060;21.960;2022-09-09T13:08:11;4.68;;;2.95;;
68484;SDS011;55472;50.060;21.960;2022-09-09T13:10:46;6.65;;;3.75;;
68484;SDS011;55472;50.060;21.960;2022-09-09T13:13:21;6.30;;;3.60;;
68484;SDS011;55472;50.060;21.960;2022-09-09T13:15:51;4.88;;;3.15;;
68484;SDS011;55472;50.060;21.960;2022-09-09T13:18:27;5.47;;;3.20;;
68484;SDS011;55472;50.060;21.960;2022-09-09T13:20:57;6.57;;;3.10;;
68484;SDS011;55472;50.060;21.960;2022-09-09T13:23:25;4.43;;;2.83;;
68484;SDS011;55472;50.060;21.960;2022-09-09T13:25:59;5.25;;;2.97;;
68484;SDS011;55472;50.060;21.960;2022-09-09T13:28:33;5.00;;;3.40;;
68484;SDS011;55472;50.060;21.960;2022-09-09T13:33:32;6.80;;;3.20;;
68484;SDS011;55472;50.060;21.960;2022-09-09T13:36:03;6.25;;;3.10;;
68484;SDS011;55472;50.060;21.960;2022-09-09T13:38:40;5.43;;;3.15;;
68484;SDS011;55472;50.060;21.960;2022-09-09T13:41:22;6.72;;;3.53;;
68484;SDS011;55472;50.060;21.960;2022-09-09T13:43:51;8.97;;;3.37;;
68484;SDS011;55472;50.060;21.960;2022-09-09T13:49:22;5.72;;;2.90;;
68484;SDS011;55472;50.060;21.960;2022-09-09T13:51:49;5.70;;;3.00;;
68484;SDS011;55472;50.060;21.960;2022-09-09T13:54:19;5.90;;;2.60;;
68484;SDS011;55472;50.060;21.960;2022-09-09T13:56:46;5.13;;;2.60;;
68484;SDS011;55472;50.060;21.960;2022-09-09T13:59:13;5.72;;;3.42;;
68484;SDS011;55472;50.060;21.960;2022-09-09T14:01:45;5.60;;;3.03;;
68484;SDS011;55472;50.060;21.960;2022-09-09T14:04:11;6.25;;;3.10;;
68484;SDS011;55472;50.060;21.960;2022-09-09T14:06:38;8.13;;;3.08;;
68484;SDS011;55472;50.060;21.960;2022-09-09T14:09:05;6.27;;;3.60;;
68484;SDS011;55472;50.060;21.960;2022-09-09T14:11:32;7.07;;;3.50;;
68484;SDS011;55472;50.060;21.960;2022-09-09T14:13:58;4.57;;;2.63;;
68484;SDS011;55472;50.060;21.960;2022-09-09T14:16:24;4.25;;;2.80;;
68484;SDS011;55472;50.060;21.960;2022-09-09T14:18:52;5.65;;;2.80;;
68484;SDS011;55472;50.060;21.960;2022-09-09T14:21:21;6.13;;;3.00;;
68484;SDS011;55472;50.060;21.960;2022-09-09T14:23:47;4.07;;;2.80;;
68484;SDS011;55472;50.060;21.960;2022-09-09T14:26:13;6.05;;;2.78;;
68484;SDS011;55472;50.060;21.960;2022-09-09T14:28:39;4.60;;;2.80;;
68484;SDS011;55472;50.060;21.960;2022-09-09T14:31:06;4.40;;;2.78;;
68484;SDS011;55472;50.060;21.960;2022-09-09T14:33:32;5.67;;;2.87;;
68484;SDS011;55472;50.060;21.960;2022-09-09T14:36:00;4.60;;;2.97;;
68484;SDS011;55472;50.060;21.960;2022-09-09T14:38:29;5.25;;;3.25;;
68484;SDS011;55472;50.060;21.960;2022-09-09T14:40:56;4.82;;;3.10;;
68484;SDS011;55472;50.060;21.960;2022-09-09T14:43:23;6.43;;;3.15;;
68484;SDS011;55472;50.060;21.960;2022-09-09T14:45:50;6.30;;;2.93;;
68484;SDS011;55472;50.060;21.960;2022-09-09T14:48:18;5.00;;;3.08;;
68484;SDS011;55472;50.060;21.960;2022-09-09T14:50:44;5.93;;;2.95;;
68484;SDS011;55472;50.060;21.960;2022-09-09T14:53:10;5.70;;;3.20;;
68484;SDS011;55472;50.060;21.960;2022-09-09T14:55:37;5.97;;;3.20;;
68484;SDS011;55472;50.060;21.960;2022-09-09T14:58:03;4.53;;;2.78;;
68484;SDS011;55472;50.060;21.960;2022-09-09T15:00:30;5.63;;;3.03;;
68484;SDS011;55472;50.060;21.960;2022-09-09T15:02:56;7.07;;;2.83;;
68484;SDS011;55472;50.060;21.960;2022-09-09T15:05:22;5.90;;;3.10;;
68484;SDS011;55472;50.060;21.960;2022-09-09T15:07:48;4.90;;;2.97;;
68484;SDS011;55472;50.060;21.960;2022-09-09T15:10:14;6.28;;;3.30;;
68484;SDS011;55472;50.060;21.960;2022-09-09T15:12:40;6.68;;;3.05;;
68484;SDS011;55472;50.060;21.960;2022-09-09T15:15:07;7.00;;;3.23;;
68484;SDS011;55472;50.060;21.960;2022-09-09T15:17:33;5.93;;;3.22;;
68484;SDS011;55472;50.060;21.960;2022-09-09T15:20:02;5.70;;;3.53;;
68484;SDS011;55472;50.060;21.960;2022-09-09T15:22:31;8.90;;;3.40;;
68484;SDS011;55472;50.060;21.960;2022-09-09T15:24:57;7.60;;;3.95;;
68484;SDS011;55472;50.060;21.960;2022-09-09T15:27:23;7.23;;;4.50;;
68484;SDS011;55472;50.060;21.960;2022-09-09T15:29:49;9.80;;;5.38;;
68484;SDS011;55472;50.060;21.960;2022-09-09T15:32:17;11.50;;;7.07;;
68484;SDS011;55472;50.060;21.960;2022-09-09T15:34:43;14.38;;;8.80;;
68484;SDS011;55472;50.060;21.960;2022-09-09T15:37:10;16.17;;;9.07;;
68484;SDS011;55472;50.060;21.960;2022-09-09T15:39:38;16.10;;;9.07;;
68484;SDS011;55472;50.060;21.960;2022-09-09T15:42:06;16.45;;;9.07;;
68484;SDS011;55472;50.060;21.960;2022-09-09T15:44:40;17.67;;;10.07;;
68484;SDS011;55472;50.060;21.960;2022-09-09T15:47:07;17.10;;;9.43;;
68484;SDS011;55472;50.060;21.960;2022-09-09T15:49:37;15.95;;;9.38;;
68484;SDS011;55472;50.060;21.960;2022-09-09T15:52:03;24.10;;;13.20;;
68484;SDS011;55472;50.060;21.960;2022-09-09T15:54:31;18.85;;;11.27;;
68484;SDS011;55472;50.060;21.960;2022-09-09T15:57:01;19.13;;;10.32;;
68484;SDS011;55472;50.060;21.960;2022-09-09T15:59:29;15.70;;;9.88;;
68484;SDS011;55472;50.060;21.960;2022-09-09T16:01:56;18.10;;;10.30;;
68484;SDS011;55472;50.060;21.960;2022-09-09T16:04:25;15.87;;;9.77;;
68484;SDS011;55472;50.060;21.960;2022-09-09T16:06:54;18.42;;;11.07;;
68484;SDS011;55472;50.060;21.960;2022-09-09T16:09:27;18.33;;;9.38;;
68484;SDS011;55472;50.060;21.960;2022-09-09T16:11:55;16.67;;;9.77;;
68484;SDS011;55472;50.060;21.960;2022-09-09T16:14:23;22.65;;;12.02;;
68484;SDS011;55472;50.060;21.960;2022-09-09T16:16:53;21.60;;;11.40;;
68484;SDS011;55472;50.060;21.960;2022-09-09T16:19:19;21.63;;;12.27;;
68484;SDS011;55472;50.060;21.960;2022-09-09T16:21:46;23.70;;;12.27;;
68484;SDS011;55472;50.060;21.960;2022-09-09T16:24:15;22.63;;;12.35;;
68484;SDS011;55472;50.060;21.960;2022-09-09T16:26:45;24.07;;;12.00;;
68484;SDS011;55472;50.060;21.960;2022-09-09T16:29:13;20.98;;;11.73;;
68484;SDS011;55472;50.060;21.960;2022-09-09T16:31:42;23.67;;;10.77;;
68484;SDS011;55472;50.060;21.960;2022-09-09T16:34:09;21.20;;;11.40;;
68484;SDS011;55472;50.060;21.960;2022-09-09T16:36:39;24.08;;;11.73;;
68484;SDS011;55472;50.060;21.960;2022-09-09T16:39:08;20.30;;;11.57;;
68484;SDS011;55472;50.060;21.960;2022-09-09T16:41:37;21.45;;;11.10;;
68484;SDS011;55472;50.060;21.960;2022-09-09T16:44:05;21.85;;;11.23;;
68484;SDS011;55472;50.060;21.960;2022-09-09T16:46:35;20.15;;;10.10;;
68484;SDS011;55472;50.060;21.960;2022-09-09T16:49:08;22.20;;;11.55;;
68484;SDS011;55472;50.060;21.960;2022-09-09T16:51:40;19.80;;;11.37;;
68484;SDS011;55472;50.060;21.960;2022-09-09T16:54:13;19.55;;;10.80;;
68484;SDS011;55472;50.060;21.960;2022-09-09T16:56:42;25.38;;;11.40;;
68484;SDS011;55472;50.060;21.960;2022-09-09T16:59:11;21.40;;;11.20;;
68484;SDS011;55472;50.060;21.960;2022-09-09T17:01:40;21.05;;;11.20;;
68484;SDS011;55472;50.060;21.960;2022-09-09T17:04:15;20.60;;;10.93;;
68484;SDS011;55472;50.060;21.960;2022-09-09T17:06:49;24.67;;;12.20;;
68484;SDS011;55472;50.060;21.960;2022-09-09T17:09:18;19.65;;;10.52;;
68484;SDS011;55472;50.060;21.960;2022-09-09T17:11:45;22.45;;;11.23;;
68484;SDS011;55472;50.060;21.960;2022-09-09T17:14:14;22.33;;;11.77;;
68484;SDS011;55472;50.060;21.960;2022-09-09T17:16:45;26.80;;;11.70;;
68484;SDS011;55472;50.060;21.960;2022-09-09T17:19:17;21.92;;;11.55;;
68484;SDS011;55472;50.060;21.960;2022-09-09T17:21:46;21.77;;;11.52;;
68484;SDS011;55472;50.060;21.960;2022-09-09T17:24:12;21.85;;;11.45;;
68484;SDS011;55472;50.060;21.960;2022-09-09T17:26:38;24.38;;;11.88;;
68484;SDS011;55472;50.060;21.960;2022-09-09T17:29:05;22.53;;;11.97;;